Time;durP1;ratioP1;P1;durP2;ratioP2;P2;SDS_P1;SDS_P2;PMS_P1;PMS_P2;Temp;Humidity;BMP_temperature;BMP_pressure;BME280_temperature;BME280_humidity;BME280_pressure;Samples;Min_cycle;Max_cycle;Signal;HPM_P1;HPM_P2
2021/10/15 00:00:25;;;;;;;2.97;2.17;;;22.50;57.10;;;;;;38918391;22;20040;-46
2021/10/15 00:15:27;;;;;;;1.85;1.70;;;22.50;57.00;;;;;;38926330;22;20012;-46
2021/10/15 00:30:29;;;;;;;5.82;3.13;;;22.50;57.10;;;;;;38925325;22;20035;-44
2021/10/15 00:45:31;;;;;;;3.15;2.33;;;22.30;55.80;;;;;;38932536;22;20020;-47
2021/10/15 01:00:33;;;;;;;3.63;3.10;;;22.20;56.70;;;;;;38929852;23;20016;-37
2021/10/15 01:15:35;;;;;;;3.65;2.97;;;22.20;56.20;;;;;;38931683;22;20016;-47
2021/10/15 01:30:37;;;;;;;3.80;3.00;;;22.10;56.40;;;;;;38932026;22;20042;-48
2021/10/15 01:45:39;;;;;;;4.30;2.45;;;22.00;56.50;;;;;;38923175;23;20041;-43
2021/10/15 02:00:41;;;;;;;2.83;2.45;;;22.50;57.10;;;;;;38920094;22;20024;-42
2021/10/15 02:15:44;;;;;;;3.50;1.92;;;22.90;56.00;;;;;;38918797;22;20012;-42
2021/10/15 02:30:46;;;;;;;2.92;2.10;;;22.80;56.10;;;;;;38917977;22;20079;-42
2021/10/15 02:45:48;;;;;;;2.63;2.30;;;22.70;56.30;;;;;;38917516;22;20020;-45
2021/10/15 03:00:50;;;;;;;2.95;1.95;;;22.70;56.60;;;;;;38920405;22;20042;-48
2021/10/15 03:15:52;;;;;;;2.97;2.20;;;22.70;56.70;;;;;;38924691;23;20012;-43
2021/10/15 03:30:54;;;;;;;3.00;2.60;;;22.50;56.20;;;;;;38920003;22;20023;-49
2021/10/15 03:45:57;;;;;;;2.08;1.88;;;22.50;56.30;;;;;;38934714;22;20132;-45
2021/10/15 04:00:59;;;;;;;2.50;1.95;;;22.30;56.80;;;;;;38927216;22;20013;-45
2021/10/15 04:16:01;;;;;;;3.58;2.05;;;22.50;57.00;;;;;;38931798;22;20032;-38
2021/10/15 04:31:03;;;;;;;4.65;2.65;;;22.50;57.10;;;;;;38931225;22;20075;-44
2021/10/15 04:46:05;;;;;;;17.48;5.57;;;22.40;57.80;;;;;;38990966;22;20079;-45
2021/10/15 05:01:07;;;;;;;19.65;5.97;;;22.80;57.50;;;;;;38924957;22;20016;-45
2021/10/15 05:16:10;;;;;;;15.38;6.18;;;23.00;57.70;;;;;;38926431;22;20008;-39
2021/10/15 05:31:12;;;;;;;20.95;5.00;;;23.10;57.60;;;;;;38926537;22;20023;-46
2021/10/15 05:46:15;;;;;;;14.73;5.47;;;22.90;57.00;;;;;;38921740;22;20103;-47
2021/10/15 06:01:23;;;;;;;54.58;39.92;;;22.90;57.20;;;;;;38922293;23;20012;-42
2021/10/15 06:16:28;;;;;;;32.75;22.75;;;22.50;53.90;;;;;;38920192;23;20043;-42
2021/10/15 06:31:30;;;;;;;23.50;16.98;;;22.90;54.90;;;;;;38918092;22;20081;-41
2021/10/15 06:46:32;;;;;;;23.02;15.77;;;22.90;53.50;;;;;;38921738;23;20016;-39
2021/10/15 07:01:34;;;;;;;25.15;13.30;;;22.80;52.00;;;;;;38918502;22;20012;-40
2021/10/15 07:16:37;;;;;;;13.57;10.68;;;22.90;53.30;;;;;;38906590;23;20013;-46
2021/10/15 07:31:39;;;;;;;23.70;10.48;;;22.70;54.40;;;;;;38904424;22;20039;-39
2021/10/15 07:46:43;;;;;;;12.68;9.30;;;22.70;55.10;;;;;;38904614;22;20055;-45
2021/10/15 08:01:46;;;;;;;13.13;9.02;;;23.00;55.20;;;;;;38910402;22;20040;-46
2021/10/15 08:16:48;;;;;;;11.02;7.60;;;23.20;55.10;;;;;;38904577;22;20047;-45
2021/10/15 08:32:10;;;;;;;11.90;7.50;;;23.00;55.30;;;;;;38919285;22;20071;-45
2021/10/15 08:47:17;;;;;;;10.35;7.50;;;23.00;55.40;;;;;;38979741;22;20020;-38
2021/10/15 09:02:39;;;;;;;11.63;7.07;;;22.90;55.60;;;;;;38919501;23;20020;-43
2021/10/15 09:17:51;;;;;;;11.02;6.82;;;22.80;56.30;;;;;;38920558;22;20016;-42
2021/10/15 09:32:58;;;;;;;10.98;6.38;;;22.70;56.60;;;;;;38916319;22;20031;-45
2021/10/15 09:48:15;;;;;;;10.25;6.10;;;22.70;57.20;;;;;;38919802;22;20027;-39
2021/10/15 10:03:20;;;;;;;9.65;6.32;;;22.90;56.90;;;;;;38919903;22;20016;-42
2021/10/15 10:18:29;;;;;;;10.85;8.38;;;23.20;56.50;;;;;;38919010;23;20017;-41
2021/10/15 10:33:52;;;;;;;29.53;21.40;;;23.10;55.90;;;;;;38918667;22;20042;-44
2021/10/15 10:48:54;;;;;;;21.67;15.98;;;22.70;53.90;;;;;;38919418;22;20019;-45
2021/10/15 11:03:57;;;;;;;20.77;14.65;;;22.50;51.70;;;;;;38919968;23;20072;-44
2021/10/15 11:18:59;;;;;;;23.35;13.02;;;22.50;52.30;;;;;;38918448;23;20099;-39
2021/10/15 11:34:13;;;;;;;23.35;11.30;;;22.80;53.90;;;;;;38916406;23;20023;-40
2021/10/15 11:49:15;;;;;;;27.20;11.65;;;23.20;54.10;;;;;;38916768;23;20080;-46
2021/10/15 12:04:17;;;;;;;26.98;11.05;;;23.20;54.40;;;;;;38923639;23;20096;-46
2021/10/15 12:19:26;;;;;;;32.08;11.82;;;23.10;55.80;;;;;;38926715;23;20019;-37
2021/10/15 12:34:28;;;;;;;26.83;10.43;;;23.10;55.90;;;;;;38934312;22;20050;-50
2021/10/15 12:49:51;;;;;;;20.15;9.50;;;23.00;55.40;;;;;;38924524;23;20016;-46
2021/10/15 13:04:56;;;;;;;17.40;9.43;;;22.90;55.50;;;;;;38924557;22;20083;-45
2021/10/15 13:19:58;;;;;;;24.45;10.40;;;22.80;56.00;;;;;;38923389;22;20012;-45
2021/10/15 13:35:01;;;;;;;15.43;8.70;;;22.80;56.80;;;;;;38923645;22;20028;-35
2021/10/15 13:50:04;;;;;;;19.48;8.70;;;23.20;56.70;;;;;;38923747;22;20016;-37
2021/10/15 14:05:06;;;;;;;14.10;8.15;;;23.40;56.90;;;;;;38926703;22;20072;-36
2021/10/15 14:20:08;;;;;;;13.30;7.80;;;23.40;58.40;;;;;;38921407;23;20012;-36
2021/10/15 14:35:10;;;;;;;15.98;7.43;;;23.30;57.70;;;;;;38917532;23;20016;-37
2021/10/15 14:50:15;;;;;;;20.45;9.43;;;23.20;57.80;;;;;;38917317;23;20039;-36
2021/10/15 15:05:17;;;;;;;23.27;11.85;;;23.10;58.00;;;;;;38915294;22;20132;-36
2021/10/15 15:20:20;;;;;;;24.00;13.98;;;23.10;60.10;;;;;;38915824;22;20039;-36
2021/10/15 15:35:22;;;;;;;16.98;11.02;;;22.90;60.80;;;;;;38914360;22;20050;-36
2021/10/15 15:50:24;;;;;;;16.83;9.80;;;22.80;59.80;;;;;;38915091;23;20020;-46
2021/10/15 16:05:28;;;;;;;19.85;9.10;;;23.00;59.20;;;;;;38910224;22;20012;-36
2021/10/15 16:20:30;;;;;;;16.40;8.05;;;23.50;59.70;;;;;;38914598;23;20035;-50
2021/10/15 16:35:32;;;;;;;13.35;7.30;;;23.70;60.60;;;;;;38908028;22;20012;-36
2021/10/15 16:50:35;;;;;;;17.02;9.95;;;23.50;61.60;;;;;;38917032;22;20047;-41
2021/10/15 17:05:41;;;;;;;23.85;12.88;;;23.40;60.70;;;;;;38925266;22;20099;-45
2021/10/15 17:20:43;;;;;;;18.83;12.48;;;23.10;57.60;;;;;;38923389;22;20067;-39
2021/10/15 17:35:46;;;;;;;15.27;10.52;;;23.10;57.50;;;;;;38919478;22;20063;-39
2021/10/15 17:50:48;;;;;;;38.30;24.42;;;23.00;54.70;;;;;;38923120;23;20016;-43
2021/10/15 18:05:50;;;;;;;29.00;19.23;;;22.90;56.40;;;;;;38919539;22;20020;-36
2021/10/15 18:20:52;;;;;;;27.42;15.70;;;23.00;57.50;;;;;;38917785;22;20065;-39
2021/10/15 18:35:54;;;;;;;57.60;41.45;;;23.10;57.80;;;;;;38908885;23;20016;-45
2021/10/15 18:50:57;;;;;;;42.00;30.10;;;23.10;60.40;;;;;;38920499;22;20076;-45
2021/10/15 19:06:00;;;;;;;40.85;27.98;;;23.00;58.70;;;;;;38923793;23;20072;-43
2021/10/15 19:21:02;;;;;;;36.33;22.13;;;22.90;58.70;;;;;;38924757;22;20019;-45
2021/10/15 19:36:06;;;;;;;32.22;20.15;;;23.00;58.90;;;;;;38923198;22;20012;-46
2021/10/15 19:51:13;;;;;;;25.45;17.05;;;23.00;59.00;;;;;;38923705;22;20016;-39
2021/10/15 20:06:15;;;;;;;26.10;13.98;;;23.00;59.10;;;;;;38915134;22;20088;-40
2021/10/15 20:21:17;;;;;;;29.77;21.55;;;23.00;59.10;;;;;;38925716;22;20019;-44
2021/10/15 20:36:19;;;;;;;29.88;17.80;;;23.00;58.80;;;;;;38930797;22;20265;-39
2021/10/15 20:51:21;;;;;;;23.98;16.10;;;23.00;58.90;;;;;;38925054;22;20022;-44
2021/10/15 21:06:23;;;;;;;51.85;32.15;;;23.00;59.10;;;;;;38925966;22;20041;-43
2021/10/15 21:21:25;;;;;;;26.20;19.95;;;22.90;58.70;;;;;;38922384;23;20043;-44
2021/10/15 21:36:27;;;;;;;24.70;17.70;;;22.90;59.20;;;;;;38919387;22;20036;-43
2021/10/15 21:51:29;;;;;;;19.45;15.52;;;22.90;59.30;;;;;;38924239;23;20050;-39
2021/10/15 22:06:32;;;;;;;17.67;14.80;;;22.90;59.60;;;;;;38919928;23;20441;-43
2021/10/15 22:21:34;;;;;;;19.33;14.05;;;22.90;59.50;;;;;;38924536;23;20042;-35
2021/10/15 22:36:36;;;;;;;16.95;13.27;;;23.00;59.50;;;;;;38922308;22;20032;-37
2021/10/15 22:51:38;;;;;;;24.23;13.20;;;22.80;60.20;;;;;;38921563;22;20020;-37
2021/10/15 23:06:43;;;;;;;16.52;12.32;;;22.70;61.50;;;;;;38918804;22;20488;-44
2021/10/15 23:21:45;;;;;;;25.73;18.60;;;22.70;61.60;;;;;;38921703;22;20064;-46
2021/10/15 23:36:47;;;;;;;30.63;23.48;;;22.60;61.50;;;;;;38915037;23;20042;-44
2021/10/15 23:51:49;;;;;;;20.80;16.83;;;22.70;59.00;;;;;;38919998;23;20024;-39
